Time;durP1;ratioP1;P1;durP2;ratioP2;P2;SDS_P1;SDS_P2;PMS_P1;PMS_P2;Temp;Humidity;BMP_temperature;BMP_pressure;BME280_temperature;BME280_humidity;BME280_pressure;Samples;Min_cycle;Max_cycle;Signal;HPM_P1;HPM_P2
2023/04/06 00:01:03;;;;;;;23.42;11.77;;;;;;;0.62;98.76;101833.34;4958206;28;20488;-92
2023/04/06 00:03:28;;;;;;;24.90;12.15;;;;;;;0.60;98.95;101832.47;4957845;28;20089;-92
2023/04/06 00:05:54;;;;;;;26.50;12.02;;;;;;;0.51;99.17;101819.41;4958842;28;20045;-91
2023/04/06 00:08:21;;;;;;;24.00;11.80;;;;;;;0.58;100.00;101828.97;4943336;28;20054;-91
2023/04/06 00:10:46;;;;;;;25.13;11.60;;;;;;;0.51;98.80;101819.41;4959271;28;20026;-91
2023/04/06 00:13:12;;;;;;;23.65;11.35;;;;;;;0.50;99.47;101817.66;4959625;28;20037;-91
2023/04/06 00:15:37;;;;;;;23.25;11.35;;;;;;;0.56;99.94;101828.06;4941279;28;20034;-91
2023/04/06 00:18:03;;;;;;;24.05;11.63;;;;;;;0.52;99.67;101826.25;4958947;28;20035;-91
2023/04/06 00:20:28;;;;;;;23.90;11.45;;;;;;;0.50;99.39;101824.44;4956341;28;20026;-92
2023/04/06 00:22:54;;;;;;;25.85;11.93;;;;;;;0.48;99.33;101826.09;4953965;28;20099;-92
2023/04/06 00:25:19;;;;;;;22.23;11.35;;;;;;;0.45;99.45;101813.22;4956814;28;20034;-92
2023/04/06 00:27:45;;;;;;;23.40;11.38;;;;;;;0.44;99.37;101821.69;4956674;28;20026;-91
2023/04/06 00:30:10;;;;;;;25.42;11.90;;;;;;;0.41;99.95;101817.34;4958892;28;20042;-92
2023/04/06 00:32:36;;;;;;;22.65;10.85;;;;;;;0.36;98.85;101821.44;4940499;28;20042;-92
2023/04/06 00:35:03;;;;;;;25.35;12.07;;;;;;;0.32;100.00;101806.88;4958342;28;20038;-91
2023/04/06 00:37:28;;;;;;;25.60;12.38;;;;;;;0.30;100.00;101801.72;4956915;28;20031;-91
2023/04/06 00:39:54;;;;;;;23.60;11.77;;;;;;;0.35;100.00;101807.81;4957469;28;20076;-91
2023/04/06 00:42:25;;;;;;;22.77;11.75;;;;;;;0.31;100.00;101800.03;4957828;28;20023;-91
2023/04/06 00:44:58;;;;;;;27.58;12.10;;;;;;;0.35;100.00;101802.72;4958231;28;20066;-91
2023/04/06 00:47:27;;;;;;;25.55;11.82;;;;;;;0.35;100.00;101801.84;4946207;28;20035;-92
2023/04/06 00:49:54;;;;;;;22.65;11.23;;;;;;;0.34;100.00;101793.34;4958904;28;20035;-91
2023/04/06 00:52:19;;;;;;;26.25;12.02;;;;;;;0.37;100.00;101795.13;4940755;28;20535;-91
2023/04/06 00:54:45;;;;;;;24.10;12.00;;;;;;;0.29;100.00;101783.81;4959098;28;20039;-91
2023/04/06 00:57:15;;;;;;;28.35;12.50;;;;;;;0.39;100.00;101798.59;4956452;28;20157;-91
2023/04/06 00:59:44;;;;;;;27.00;11.82;;;;;;;0.38;100.00;101791.75;4959049;28;20118;-91
2023/04/06 01:02:10;;;;;;;24.55;11.57;;;;;;;0.35;100.00;101786.56;4945711;28;20487;-90
2023/04/06 01:04:35;;;;;;;24.98;11.52;;;;;;;0.35;100.00;101784.00;4959117;28;20022;-92
2023/04/06 01:07:01;;;;;;;25.98;12.32;;;;;;;0.36;100.00;101778.09;4961441;28;20574;-92
2023/04/06 01:09:30;;;;;;;28.25;12.60;;;;;;;0.36;100.00;101773.00;4962340;28;20050;-91
2023/04/06 01:11:56;;;;;;;27.08;12.60;;;;;;;0.33;100.00;101767.81;4960032;28;20034;-91
2023/04/06 01:14:25;;;;;;;24.35;11.90;;;;;;;0.35;100.00;101766.16;4961905;28;20463;-91
2023/04/06 01:16:52;;;;;;;26.25;12.57;;;;;;;0.43;100.00;101768.94;4962468;28;20105;-91
2023/04/06 01:19:17;;;;;;;23.75;11.70;;;;;;;0.36;100.00;101763.66;4962760;28;20772;-91
2023/04/06 01:21:43;;;;;;;28.73;12.38;;;;;;;0.42;100.00;101773.19;4961936;28;20134;-91
2023/04/06 01:24:09;;;;;;;25.02;12.30;;;;;;;0.42;100.00;101762.13;4960488;28;20105;-90
2023/04/06 01:26:35;;;;;;;25.27;11.55;;;;;;;0.52;100.00;101765.03;4962361;28;20392;-91
2023/04/06 01:29:02;;;;;;;23.70;11.60;;;;;;;0.56;100.00;101771.94;4961912;28;20475;-91
2023/04/06 01:31:27;;;;;;;25.73;12.00;;;;;;;0.50;100.00;101755.59;4959734;28;20069;-92
2023/04/06 01:33:53;;;;;;;25.20;11.15;;;;;;;0.58;100.00;101764.34;4962062;28;20074;-91
2023/04/06 01:36:19;;;;;;;24.73;11.77;;;;;;;0.60;100.00;101755.06;4944196;28;20023;-91
2023/04/06 01:38:45;;;;;;;23.35;11.23;;;;;;;0.63;100.00;101745.81;4950236;28;20034;-92
2023/04/06 01:41:11;;;;;;;27.42;12.27;;;;;;;0.63;100.00;101744.94;4961505;28;20517;-91
2023/04/06 01:43:36;;;;;;;23.50;12.15;;;;;;;0.67;100.00;101741.69;4961948;28;20027;-91
2023/04/06 01:46:02;;;;;;;26.17;12.23;;;;;;;0.73;100.00;101739.31;4960780;28;20027;-92
2023/04/06 01:48:27;;;;;;;24.70;11.77;;;;;;;0.76;100.00;101731.75;4960476;28;20054;-90
2023/04/06 01:50:53;;;;;;;27.55;12.27;;;;;;;0.78;98.59;101722.47;4961283;28;20114;-91
2023/04/06 01:53:19;;;;;;;26.40;12.43;;;;;;;1.00;97.93;101732.50;4960781;28;20067;-91
2023/04/06 01:55:45;;;;;;;27.88;12.40;;;;;;;1.09;99.98;101721.69;4961150;28;20047;-92
2023/04/06 01:58:10;;;;;;;27.20;12.95;;;;;;;1.19;100.00;101726.22;4959649;28;20035;-92
2023/04/06 02:00:36;;;;;;;27.73;12.60;;;;;;;1.24;100.00;101713.56;4960992;28;20406;-91
2023/04/06 02:03:01;;;;;;;30.02;13.27;;;;;;;1.30;100.00;101703.56;4961530;28;20123;-91
2023/04/06 02:05:29;;;;;;;26.15;12.75;;;;;;;1.47;100.00;101712.53;4961732;28;20022;-92
2023/04/06 02:07:55;;;;;;;26.85;12.45;;;;;;;1.46;97.76;101721.00;4960066;28;20055;-91
2023/04/06 02:10:20;;;;;;;25.85;12.68;;;;;;;1.52;100.00;101714.38;4948848;28;20015;-91
2023/04/06 02:12:49;;;;;;;27.83;12.23;;;;;;;1.50;97.80;101710.91;4961345;28;20043;-92
2023/04/06 02:15:15;;;;;;;26.35;12.57;;;;;;;1.51;99.21;101699.00;4960355;28;20034;-91
2023/04/06 02:17:41;;;;;;;25.95;12.30;;;;;;;1.54;100.00;101696.53;4961426;28;20117;-91
2023/04/06 02:20:07;;;;;;;29.05;12.90;;;;;;;1.57;100.00;101692.38;4962311;28;20027;-92
2023/04/06 02:22:34;;;;;;;28.13;12.93;;;;;;;1.64;100.00;101702.78;4958931;28;20034;-91
2023/04/06 02:24:59;;;;;;;27.75;13.38;;;;;;;1.68;100.00;101702.00;4958700;28;20642;-92
2023/04/06 02:27:25;;;;;;;26.73;12.25;;;;;;;1.70;100.00;101693.56;4943792;28;20034;-91
2023/04/06 02:29:50;;;;;;;27.55;13.07;;;;;;;1.67;100.00;101688.38;4943948;28;20026;-92
2023/04/06 02:32:16;;;;;;;28.85;13.85;;;;;;;1.75;100.00;101686.03;4961190;28;20090;-91
2023/04/06 02:34:41;;;;;;;29.33;13.45;;;;;;;1.81;100.00;101687.03;4974321;28;20035;-91
2023/04/06 02:37:07;;;;;;;25.55;12.77;;;;;;;1.86;100.00;101685.44;4959035;28;20032;-91
2023/04/06 02:39:32;;;;;;;29.45;12.98;;;;;;;1.85;97.81;101675.19;4960678;28;20038;-91
2023/04/06 02:41:58;;;;;;;29.42;13.70;;;;;;;1.83;98.85;101662.38;4942841;28;20030;-92
2023/04/06 02:44:23;;;;;;;30.48;13.98;;;;;;;1.90;100.00;101664.28;4959916;28;20093;-91
2023/04/06 02:46:48;;;;;;;28.50;12.98;;;;;;;2.06;100.00;101682.50;4958860;28;20760;-91
2023/04/06 02:49:14;;;;;;;27.25;12.80;;;;;;;2.02;100.00;101656.03;4941352;28;20023;-91
2023/04/06 02:51:40;;;;;;;28.48;13.65;;;;;;;2.12;100.00;101670.75;4960170;28;20074;-92
2023/04/06 02:54:05;;;;;;;26.15;12.95;;;;;;;2.17;100.00;101665.75;4944783;28;20031;-91
2023/04/06 02:56:31;;;;;;;28.02;13.52;;;;;;;2.15;100.00;101664.84;4959650;28;20061;-91
2023/04/06 02:58:56;;;;;;;31.95;14.20;;;;;;;2.11;99.38;101653.69;4947221;28;21039;-91
2023/04/06 03:01:22;;;;;;;29.05;13.80;;;;;;;2.12;98.35;101645.16;4959996;28;20022;-91
2023/04/06 03:03:47;;;;;;;29.92;13.52;;;;;;;2.26;96.74;101664.25;4958849;28;20027;-92
2023/04/06 03:06:13;;;;;;;28.38;13.48;;;;;;;2.30;95.43;101665.22;4941713;28;20106;-92
2023/04/06 03:08:38;;;;;;;31.17;14.38;;;;;;;2.29;94.69;101654.13;4960470;28;20079;-91
2023/04/06 03:11:04;;;;;;;30.10;13.65;;;;;;;2.28;97.20;101644.72;4958652;28;20041;-92
2023/04/06 03:13:29;;;;;;;27.80;13.45;;;;;;;2.31;98.66;101642.25;4960611;28;20031;-92
2023/04/06 03:15:55;;;;;;;30.45;14.18;;;;;;;2.37;95.63;101652.59;4958592;28;20121;-92
2023/04/06 03:18:25;;;;;;;28.45;13.93;;;;;;;2.45;96.39;101654.47;4959970;28;20526;-92
2023/04/06 03:20:53;;;;;;;26.20;13.55;;;;;;;2.47;97.29;101652.78;4974375;28;20027;-91
2023/04/06 03:23:20;;;;;;;31.85;14.45;;;;;;;2.45;94.74;101647.66;4974230;28;20080;-91
2023/04/06 03:25:46;;;;;;;33.95;14.32;;;;;;;2.47;96.68;101643.41;4960282;28;20071;-92
2023/04/06 03:28:11;;;;;;;31.85;14.68;;;;;;;2.48;96.83;101637.47;4942013;28;20031;-92
2023/04/06 03:30:37;;;;;;;30.73;14.35;;;;;;;2.60;94.98;101644.53;4958652;28;20043;-91
2023/04/06 03:33:02;;;;;;;31.52;15.30;;;;;;;2.59;94.89;101642.84;4959943;28;20113;-92
2023/04/06 03:35:28;;;;;;;32.30;14.73;;;;;;;2.60;94.65;101639.44;4941555;28;20164;-92
2023/04/06 03:37:53;;;;;;;34.78;16.08;;;;;;;2.69;95.36;101645.63;4959206;28;20913;-90
2023/04/06 03:40:18;;;;;;;33.88;14.60;;;;;;;2.66;97.06;101637.84;4959001;28;20034;-91
2023/04/06 03:42:44;;;;;;;36.28;15.93;;;;;;;2.72;96.93;101643.13;4942060;28;20082;-89
2023/04/06 03:45:10;;;;;;;36.63;15.63;;;;;;;2.65;95.61;101627.63;4958178;28;20487;-91
2023/04/06 03:47:35;;;;;;;33.85;15.45;;;;;;;2.72;92.29;101630.34;4960068;28;20214;-92
2023/04/06 03:50:01;;;;;;;33.30;14.85;;;;;;;2.78;91.25;101632.16;4958717;28;20397;-92
2023/04/06 03:52:26;;;;;;;32.53;14.88;;;;;;;2.70;90.63;101619.19;4960680;28;20513;-91
2023/04/06 03:54:52;;;;;;;32.45;14.68;;;;;;;2.78;93.60;101627.91;4947363;28;20089;-92
2023/04/06 03:57:18;;;;;;;37.40;15.43;;;;;;;2.82;91.54;101630.50;4959801;28;20031;-91
2023/04/06 03:59:43;;;;;;;31.77;15.05;;;;;;;2.69;90.25;101611.47;4959608;28;20019;-92
2023/04/06 04:02:08;;;;;;;33.58;16.55;;;;;;;2.81;92.29;101628.78;4957020;28;20290;-92
2023/04/06 04:04:34;;;;;;;30.02;15.57;;;;;;;2.70;90.27;101621.75;4958819;28;20807;-92
2023/04/06 04:06:59;;;;;;;31.42;15.65;;;;;;;2.66;91.66;101619.94;4959344;28;20037;-92
2023/04/06 04:09:25;;;;;;;30.48;14.43;;;;;;;2.73;90.69;101631.16;4957888;28;20061;-91
2023/04/06 04:11:50;;;;;;;33.05;15.05;;;;;;;2.72;94.21;101634.59;4959673;28;20039;-91
2023/04/06 04:14:16;;;;;;;32.55;15.95;;;;;;;2.73;95.25;101638.84;4972848;28;20022;-91
2023/04/06 04:16:41;;;;;;;31.08;15.75;;;;;;;2.66;96.08;101627.63;4957471;28;20491;-91
2023/04/06 04:19:07;;;;;;;32.22;15.88;;;;;;;2.63;94.95;101624.16;4958864;28;20133;-91
2023/04/06 04:21:32;;;;;;;32.17;16.17;;;;;;;2.74;94.37;101641.44;4958892;28;20027;-92
2023/04/06 04:23:58;;;;;;;35.03;15.88;;;;;;;2.72;93.58;101634.59;4959033;28;20474;-91
2023/04/06 04:26:23;;;;;;;32.92;16.08;;;;;;;2.73;91.23;101636.28;4957750;28;20114;-91
2023/04/06 04:28:49;;;;;;;32.58;16.25;;;;;;;2.76;90.34;101636.38;4958597;28;20035;-91
2023/04/06 04:31:17;;;;;;;31.10;15.30;;;;;;;2.73;91.24;101628.63;4957069;28;20039;-91
2023/04/06 04:33:43;;;;;;;36.67;16.50;;;;;;;2.78;89.34;101633.03;4960389;28;20506;-91
2023/04/06 04:36:09;;;;;;;36.85;16.58;;;;;;;2.77;91.96;101620.19;4936906;28;20027;-92
2023/04/06 04:38:35;;;;;;;33.78;16.00;;;;;;;2.82;89.74;101633.06;4959909;28;20023;-92
2023/04/06 04:41:00;;;;;;;33.47;15.82;;;;;;;2.76;90.36;101613.34;4955467;28;20019;-92
2023/04/06 04:43:26;;;;;;;34.83;16.70;;;;;;;2.87;92.89;101632.31;4957683;28;20034;-92
2023/04/06 04:45:52;;;;;;;34.40;16.55;;;;;;;2.85;90.87;101628.03;4958430;28;20045;-91
2023/04/06 04:48:17;;;;;;;37.33;17.20;;;;;;;2.84;91.13;101627.16;4958247;28;20039;-92
2023/04/06 04:50:43;;;;;;;36.47;16.77;;;;;;;2.87;90.36;101629.75;4957312;28;20047;-91
2023/04/06 04:53:08;;;;;;;36.92;17.20;;;;;;;2.84;91.47;101618.63;4955883;28;20023;-92
2023/04/06 04:55:34;;;;;;;34.92;16.08;;;;;;;2.81;90.88;101618.53;4957726;28;20035;-92
2023/04/06 04:57:59;;;;;;;34.95;16.25;;;;;;;2.75;88.38;101615.03;4958206;28;20039;-91
2023/04/06 05:00:25;;;;;;;33.58;16.08;;;;;;;2.83;90.39;101617.75;4972571;28;20069;-92
2023/04/06 05:02:51;;;;;;;35.50;16.33;;;;;;;2.84;89.64;101619.47;4971677;28;20027;-91
2023/04/06 05:05:16;;;;;;;38.83;17.02;;;;;;;2.83;88.95;101619.44;4958344;28;20039;-91
2023/04/06 05:07:42;;;;;;;40.63;16.50;;;;;;;2.78;88.59;101604.88;4944421;28;20051;-91
2023/04/06 05:10:07;;;;;;;35.72;16.73;;;;;;;2.86;88.51;101617.81;4956806;28;20031;-92
2023/04/06 05:12:33;;;;;;;39.72;17.05;;;;;;;2.87;88.01;101614.41;4958266;28;20026;-91
2023/04/06 05:14:58;;;;;;;36.97;17.23;;;;;;;3.01;90.15;101630.91;4937534;28;20062;-92
2023/04/06 05:17:24;;;;;;;33.80;17.17;;;;;;;2.96;89.53;101606.03;4958380;28;20509;-92
2023/04/06 05:19:50;;;;;;;33.63;16.42;;;;;;;3.13;88.39;101627.75;4956699;28;20026;-92
2023/04/06 05:22:17;;;;;;;32.20;16.50;;;;;;;3.11;88.68;101619.16;4958639;28;20498;-92
2023/04/06 05:24:43;;;;;;;32.70;17.17;;;;;;;3.17;89.33;101614.13;4938237;28;20027;-91
2023/04/06 05:27:08;;;;;;;33.47;17.20;;;;;;;3.21;87.45;101612.53;4946350;28;20483;-91
2023/04/06 05:29:34;;;;;;;36.05;17.85;;;;;;;3.35;87.65;101627.28;4957807;28;20566;-91
2023/04/06 05:31:59;;;;;;;33.35;16.45;;;;;;;3.39;88.67;101616.28;4956483;28;20039;-92
2023/04/06 05:34:27;;;;;;;37.47;17.35;;;;;;;3.48;86.95;101621.53;4957936;28;20097;-91
2023/04/06 05:36:53;;;;;;;37.03;16.55;;;;;;;3.54;87.15;101613.97;4944044;28;20109;-92
2023/04/06 05:39:18;;;;;;;35.35;17.48;;;;;;;3.57;86.95;101608.88;4958268;28;20150;-92
2023/04/06 05:41:44;;;;;;;35.15;16.73;;;;;;;3.65;87.20;101616.72;4937730;28;20093;-92
2023/04/06 05:44:10;;;;;;;36.65;17.20;;;;;;;3.75;88.83;101610.91;4958341;28;20046;-92
2023/04/06 05:46:35;;;;;;;36.90;16.65;;;;;;;3.70;86.08;101597.13;4939870;28;20038;-92
2023/04/06 05:49:00;;;;;;;35.85;16.90;;;;;;;3.79;86.50;101606.69;4940995;28;21498;-92
2023/04/06 05:51:28;;;;;;;40.72;17.25;;;;;;;3.87;86.38;101611.09;4958646;28;20042;-91
2023/04/06 05:53:54;;;;;;;39.80;17.50;;;;;;;3.87;86.93;101605.13;4961022;28;20098;-91
2023/04/06 05:56:19;;;;;;;41.08;18.02;;;;;;;3.91;85.73;101602.59;4956471;28;20444;-91
2023/04/06 05:58:44;;;;;;;37.83;18.05;;;;;;;4.02;85.67;101602.78;4959627;28;20511;-91
2023/04/06 06:01:10;;;;;;;35.33;16.88;;;;;;;4.06;87.43;101588.28;4957513;28;20031;-91
2023/04/06 06:03:36;;;;;;;35.80;17.63;;;;;;;4.14;87.82;101590.13;4959814;28;20048;-91
2023/04/06 06:06:03;;;;;;;36.20;17.13;;;;;;;4.29;85.27;101592.94;4948191;28;20054;-92
2023/04/06 06:08:29;;;;;;;33.20;17.08;;;;;;;4.39;86.65;101591.34;4960687;28;20321;-91
2023/04/06 06:10:55;;;;;;;35.63;17.20;;;;;;;4.54;84.31;101601.81;4961368;28;20476;-91
2023/04/06 06:13:21;;;;;;;37.50;18.08;;;;;;;4.56;84.33;101602.69;4961276;28;20045;-91
2023/04/06 06:15:47;;;;;;;32.53;17.55;;;;;;;4.65;86.02;101605.38;4961638;28;20356;-92
2023/04/06 06:18:12;;;;;;;37.70;18.02;;;;;;;4.61;84.18;101589.91;4961135;28;20554;-92
2023/04/06 06:20:37;;;;;;;37.03;17.63;;;;;;;4.72;83.67;101593.47;4961879;28;20443;-91
2023/04/06 06:23:03;;;;;;;33.80;17.55;;;;;;;4.82;84.08;101602.16;4942803;28;20843;-92
2023/04/06 06:25:30;;;;;;;36.65;17.85;;;;;;;4.91;85.27;101603.13;4960559;28;20037;-92
2023/04/06 06:27:56;;;;;;;33.08;17.38;;;;;;;4.98;84.10;101602.34;4957752;28;20491;-92
2023/04/06 06:30:21;;;;;;;38.63;17.85;;;;;;;5.04;83.63;101602.44;4941392;28;20026;-91
2023/04/06 06:32:47;;;;;;;37.30;18.52;;;;;;;5.11;82.53;101605.94;4958269;28;20030;-91
2023/04/06 06:35:12;;;;;;;34.80;17.55;;;;;;;5.20;83.06;101610.28;4959495;28;20035;-93
2023/04/06 06:37:38;;;;;;;37.97;17.80;;;;;;;5.37;83.66;101617.34;4960474;28;20105;-93
2023/04/06 06:40:03;;;;;;;36.75;17.85;;;;;;;5.42;82.72;101601.94;4960182;28;20035;-91
2023/04/06 06:42:29;;;;;;;37.53;17.42;;;;;;;5.63;81.42;101614.13;4960773;28;20041;-92
2023/04/06 06:44:54;;;;;;;35.75;17.30;;;;;;;5.64;81.60;101597.84;4960884;28;20416;-92
2023/04/06 06:47:20;;;;;;;34.45;17.50;;;;;;;5.77;80.91;101604.81;4958854;28;20153;-91
2023/04/06 06:49:45;;;;;;;32.72;17.23;;;;;;;5.85;82.45;101609.19;4957648;28;20027;-91
2023/04/06 06:52:11;;;;;;;34.22;17.35;;;;;;;5.90;80.14;101602.41;4958823;28;20101;-91
2023/04/06 06:54:36;;;;;;;30.88;16.30;;;;;;;6.08;79.93;101606.81;4960618;28;20035;-92
2023/04/06 06:57:01;;;;;;;35.17;17.63;;;;;;;6.14;80.72;101593.13;4960122;28;20019;-91
2023/04/06 06:59:27;;;;;;;31.30;15.93;;;;;;;6.29;78.84;101608.66;4958974;28;20173;-91
2023/04/06 07:01:53;;;;;;;33.15;16.65;;;;;;;6.32;79.77;101595.81;4957833;28;20118;-92
2023/04/06 07:04:18;;;;;;;33.00;16.13;;;;;;;6.42;79.04;101597.56;4958286;28;20521;-90
2023/04/06 07:06:43;;;;;;;35.88;16.70;;;;;;;6.47;76.35;101608.78;4959239;28;20405;-91
2023/04/06 07:09:09;;;;;;;33.05;16.52;;;;;;;6.49;78.20;101593.31;4960527;28;20049;-91
2023/04/06 07:11:34;;;;;;;32.85;16.27;;;;;;;6.49;76.89;101577.84;4959817;28;20737;-90
2023/04/06 07:14:00;;;;;;;30.15;15.98;;;;;;;6.57;75.33;101591.63;4942061;28;20348;-90
2023/04/06 07:16:25;;;;;;;32.70;17.30;;;;;;;6.58;76.38;101586.50;4960416;28;20069;-90
2023/04/06 07:18:53;;;;;;;32.72;16.08;;;;;;;6.56;74.66;101574.47;4959037;28;20399;-91
2023/04/06 07:21:19;;;;;;;30.65;15.75;;;;;;;6.59;75.97;101582.22;4946680;28;20022;-92
2023/04/06 07:23:44;;;;;;;32.17;16.52;;;;;;;6.72;75.66;101595.16;4941730;28;20096;-91
2023/04/06 07:26:10;;;;;;;34.15;15.85;;;;;;;6.80;76.66;101591.75;4958359;28;20118;-91
2023/04/06 07:28:35;;;;;;;31.23;15.77;;;;;;;6.82;76.01;101584.91;4941630;28;20026;-91
2023/04/06 07:31:01;;;;;;;31.67;16.17;;;;;;;6.85;76.44;101579.72;4958360;28;20267;-90
2023/04/06 07:33:29;;;;;;;30.38;16.20;;;;;;;6.87;75.58;101583.19;4958523;28;20884;-91
2023/04/06 07:35:55;;;;;;;31.23;15.65;;;;;;;6.96;75.66;101581.47;4972626;28;20538;-92
2023/04/06 07:38:21;;;;;;;31.40;16.23;;;;;;;6.99;75.15;101580.63;4957448;28;20033;-92
2023/04/06 07:40:46;;;;;;;30.15;15.85;;;;;;;7.03;75.14;101578.06;4959585;28;20035;-92
2023/04/06 07:43:12;;;;;;;30.33;15.65;;;;;;;7.08;75.63;101571.22;4957890;28;20027;-92
2023/04/06 07:45:37;;;;;;;28.65;15.00;;;;;;;7.27;74.58;101584.13;4958200;28;20450;-92
2023/04/06 07:48:13;;;;;;;31.08;15.57;;;;;;;7.26;75.21;101575.53;4943265;28;20019;-92
2023/04/06 07:50:48;;;;;;;30.40;15.73;;;;;;;7.36;74.44;101571.28;4941696;28;20035;-93
2023/04/06 07:53:14;;;;;;;29.48;15.68;;;;;;;7.54;74.90;101579.00;4924861;29;20083;-91
2023/04/06 07:55:48;;;;;;;30.85;15.48;;;;;;;7.57;74.91;101573.88;4923851;29;20071;-91
2023/04/06 07:58:14;;;;;;;;;;;;;;;7.74;76.45;101595.34;4908034;29;20967;-92
2023/04/06 08:00:39;;;;;;;29.40;14.60;;;;;;;7.69;72.52;101570.41;4908836;29;19923;-92
2023/04/06 08:03:26;;;;;;;27.45;14.90;;;;;;;7.74;72.58;101574.72;4924531;29;20069;-90
2023/04/06 08:05:56;;;;;;;29.20;15.07;;;;;;;7.76;70.75;101561.81;4922653;29;20143;-91
2023/04/06 08:08:22;;;;;;;28.00;15.10;;;;;;;7.86;70.86;101566.97;4922319;29;20836;-92
2023/04/06 08:11:05;;;;;;;29.73;15.20;;;;;;;7.98;72.38;101575.56;4904767;29;20048;-92
2023/04/06 08:13:42;;;;;;;33.25;16.05;;;;;;;8.03;71.77;101559.19;4924408;29;20035;-92
2023/04/06 08:16:16;;;;;;;31.20;15.43;;;;;;;8.15;69.97;101571.22;4921494;29;20091;-92
2023/04/06 08:18:44;;;;;;;28.90;15.65;;;;;;;8.20;71.83;101572.94;4922318;29;20039;-92
2023/04/06 08:21:12;;;;;;;32.28;15.63;;;;;;;8.23;70.75;101559.16;4921592;29;20094;-92
2023/04/06 08:23:53;;;;;;;29.13;15.00;;;;;;;8.40;70.08;101587.53;4905285;29;20098;-92
2023/04/06 08:26:19;;;;;;;28.55;15.05;;;;;;;8.30;69.25;101569.50;4936222;28;20034;-90
2023/04/06 08:28:47;;;;;;;29.02;15.02;;;;;;;8.33;71.02;101564.31;4936809;28;20472;-91
2023/04/06 08:31:15;;;;;;;28.52;15.07;;;;;;;8.40;69.49;101572.03;4939194;29;20122;-93
2023/04/06 08:33:46;;;;;;;28.60;15.00;;;;;;;8.42;70.01;101572.91;4939414;28;20396;-92
2023/04/06 08:36:16;;;;;;;31.08;15.07;;;;;;;8.41;69.96;101574.63;4940373;29;20037;-91
2023/04/06 08:38:45;;;;;;;30.33;15.13;;;;;;;8.49;71.35;101574.59;4940441;28;20050;-94
2023/04/06 08:47:33;;;;;;;31.42;15.68;;;;;;;8.76;70.59;101571.91;4944002;28;20118;-96
2023/04/06 08:50:05;;;;;;;28.17;15.00;;;;;;;8.95;68.90;101588.19;4955653;28;20035;-94
2023/04/06 08:52:34;;;;;;;28.42;14.68;;;;;;;9.01;68.64;101575.22;4954656;28;20024;-94
2023/04/06 08:55:03;;;;;;;29.80;15.23;;;;;;;9.16;67.02;101582.91;4955761;28;20042;-95
2023/04/06 08:57:28;;;;;;;31.08;15.40;;;;;;;9.20;68.03;101570.81;4940150;29;20692;-93
2023/04/06 08:59:56;;;;;;;32.17;15.55;;;;;;;9.28;67.11;101587.97;4940909;29;20031;-94
2023/04/06 09:02:25;;;;;;;29.95;15.43;;;;;;;9.28;65.97;101575.06;4940660;28;20026;-94
2023/04/06 09:04:53;;;;;;;27.95;14.82;;;;;;;9.43;68.04;101584.44;4936353;28;20031;-93
2023/04/06 09:07:19;;;;;;;30.77;16.10;;;;;;;9.42;66.41;101575.81;4955591;28;20105;-92
2023/04/06 09:09:47;;;;;;;29.92;14.88;;;;;;;9.47;66.36;101575.81;4957819;28;20047;-92
2023/04/06 09:12:30;;;;;;;29.70;15.98;;;;;;;9.55;68.68;101570.56;4958240;28;20035;-94
2023/04/06 09:14:59;;;;;;;31.77;15.88;;;;;;;9.67;64.63;101575.66;4980619;28;20042;-96
2023/04/06 09:17:26;;;;;;;32.65;15.63;;;;;;;9.85;66.92;101581.50;4944320;28;20038;-95
2023/04/06 09:19:56;;;;;;;31.50;15.95;;;;;;;9.98;67.56;101579.66;4943279;28;20034;-95
2023/04/06 09:22:26;;;;;;;29.33;15.32;;;;;;;10.15;66.51;101582.09;4956917;28;20039;-95
2023/04/06 09:25:03;;;;;;;31.00;15.38;;;;;;;10.26;66.70;101578.56;4942056;28;20391;-95
2023/04/06 09:27:34;;;;;;;30.13;15.52;;;;;;;10.44;66.72;101584.44;4962439;28;20034;-95
2023/04/06 09:30:04;;;;;;;30.02;16.48;;;;;;;10.40;66.23;101573.22;4947564;28;20042;-96
2023/04/06 09:32:30;;;;;;;31.25;15.77;;;;;;;10.45;62.75;101578.34;4950024;28;20581;-95
2023/04/06 09:35:06;;;;;;;29.90;15.93;;;;;;;10.53;64.99;101589.50;4979157;28;20438;-96
2023/04/06 09:37:32;;;;;;;29.40;15.18;;;;;;;10.52;63.24;101585.19;4963315;28;20117;-95
2023/04/06 09:40:06;;;;;;;34.75;15.25;;;;;;;10.55;65.75;101580.84;4962188;28;20150;-94
2023/04/06 09:42:34;;;;;;;30.80;15.05;;;;;;;10.70;66.70;101574.59;4960054;28;20126;-91
2023/04/06 09:45:01;;;;;;;28.90;14.18;;;;;;;10.77;63.86;101565.88;4961151;28;20031;-94
2023/04/06 09:47:41;;;;;;;;;;;;;;;;;;;;;
2023/04/06 09:50:32;;;;;;;27.42;13.70;;;;;;;10.96;64.57;101576.84;4966133;28;20411;-96
2023/04/06 09:53:29;;;;;;;25.48;12.95;;;;;;;11.07;63.20;101587.94;4962739;28;20031;-94
2023/04/06 09:56:12;;;;;;;26.55;14.02;;;;;;;11.09;64.45;101574.06;4947545;28;20035;-94
2023/04/06 09:58:46;;;;;;;24.70;12.95;;;;;;;11.19;64.60;101571.34;4946507;28;20135;-93
2023/04/06 10:01:18;;;;;;;27.70;13.45;;;;;;;11.41;64.31;101588.31;4945192;28;20039;-94
2023/04/06 10:04:08;;;;;;;25.75;13.63;;;;;;;11.54;64.14;101591.56;4959228;28;20483;-94
2023/04/06 10:06:41;;;;;;;24.35;12.68;;;;;;;11.60;64.93;101578.50;4945874;28;20031;-93
2023/04/06 10:12:37;;;;;;;21.63;11.73;;;;;;;11.52;67.28;101586.41;4982728;23;20035;-82
2023/04/06 10:15:03;;;;;;;20.05;10.90;;;;;;;11.57;66.80;101586.34;4977769;23;20057;-87
2023/04/06 10:17:29;;;;;;;20.95;11.65;;;;;;;11.39;69.10;101572.78;5023716;23;20058;-83
2023/04/06 10:20:21;;;;;;;24.00;11.32;;;;;;;11.42;65.90;101587.44;4960867;23;20677;-87
2023/04/06 10:25:16;;;;;;;23.70;11.88;;;;;;;11.27;69.15;101603.22;4956313;28;20509;-85
2023/04/06 10:27:44;;;;;;;22.05;12.07;;;;;;;11.19;69.38;101584.31;5011235;23;20479;-94
2023/04/06 10:30:10;;;;;;;22.00;11.50;;;;;;;11.23;70.35;101586.84;4957725;28;20027;-95
2023/04/06 10:32:55;;;;;;;23.42;11.25;;;;;;;11.29;69.08;101604.06;4946420;28;20380;-94
2023/04/06 10:35:21;;;;;;;20.92;11.25;;;;;;;11.13;69.24;101592.16;4958148;28;20031;-94
2023/04/06 10:38:07;;;;;;;23.40;11.55;;;;;;;11.07;70.18;101598.31;4956881;28;20054;-95
2023/04/06 10:40:39;;;;;;;22.10;10.93;;;;;;;10.96;71.40;101592.41;4940581;28;20027;-94
2023/04/06 10:43:22;;;;;;;22.85;11.68;;;;;;;10.96;73.07;101598.47;4958954;28;20451;-94
2023/04/06 10:45:59;;;;;;;19.58;10.32;;;;;;;10.90;73.84;101585.59;4960370;28;20477;-95
2023/04/06 10:48:47;;;;;;;17.77;10.30;;;;;;;10.89;75.78;101583.88;4945437;29;20027;-93
2023/04/06 10:51:20;;;;;;;18.38;9.95;;;;;;;10.94;74.45;101587.25;4955473;28;20067;-91
2023/04/06 10:53:49;;;;;;;21.58;9.65;;;;;;;10.93;73.55;101590.72;4940060;28;20513;-91
2023/04/06 10:56:20;;;;;;;17.35;9.27;;;;;;;10.94;75.31;101591.56;4945028;28;20039;-92
2023/04/06 10:58:47;;;;;;;18.63;9.52;;;;;;;10.89;74.35;101591.63;4941569;28;20115;-92
2023/04/06 11:01:33;;;;;;;15.43;8.55;;;;;;;10.78;75.62;101577.94;4941534;28;20042;-92
2023/04/06 11:04:03;;;;;;;16.25;8.57;;;;;;;10.77;76.43;101580.56;4940640;28;20042;-91
2023/04/06 11:06:47;;;;;;;15.68;8.68;;;;;;;10.77;77.24;101589.22;4941559;29;20042;-91
2023/04/06 11:09:35;;;;;;;14.73;8.90;;;;;;;10.72;76.60;101590.13;4957879;28;20090;-92
2023/04/06 11:12:02;;;;;;;15.55;7.82;;;;;;;10.65;78.26;101590.19;4945854;29;20046;-92
2023/04/06 11:14:34;;;;;;;16.77;8.63;;;;;;;10.43;79.62;101578.38;4940816;28;20090;-91
2023/04/06 11:17:03;;;;;;;15.93;8.18;;;;;;;10.27;80.28;101564.72;4939842;29;20035;-91
2023/04/06 11:19:34;;;;;;;14.93;8.20;;;;;;;10.22;80.50;101570.84;4963314;28;20039;-96
2023/04/06 11:22:07;;;;;;;12.25;7.03;;;;;;;10.13;80.19;101574.34;4940138;29;20046;-94
2023/04/06 11:24:55;;;;;;;12.88;6.88;;;;;;;9.95;81.13;101564.19;4951653;29;20114;-96
2023/04/06 11:30:33;;;;;;;11.60;6.85;;;;;;;9.59;84.58;101567.06;5084483;23;20110;-96
2023/04/06 11:35:36;;;;;;;12.02;6.20;;;;;;;9.34;85.17;101545.72;4823010;23;20059;-96
2023/04/06 11:38:08;;;;;;;10.68;6.10;;;;;;;9.34;86.17;101549.16;4963848;28;20047;-96